WetterOnline ( http://www.wetteronline.de )

Wetter aktuell Malsch

Aktuelles Wetter: Rheinstetten (116m)

6-stündlich | Neueste Meldungen
Ortszeit Temperatur Wetter
Do, 26.04. 20:00 13.2° C wolkig
Do, 26.04. 14:00 14.4° C leicht bewölkt
Do, 26.04. 8:00 10.6° C bewölkt
Do, 26.04. 2:00 12.1° C bedeckt
Mi, 25.04. 20:00 16.6° C bewölkt
Mi, 25.04. 14:00 18.4° C bedeckt
Mi, 25.04. 8:00 14.4° C bewölkt
Mi, 25.04. 2:00 9.4° C wolkig
Ortszeit Temperatur Wetter
Fr, 27.04. 0:30 5.9° C wolkig
Fr, 27.04. 0:10 6.2° C wolkig
Fr, 27.04. 0:00 6.6° C wolkig
Do, 26.04. 23:50 6.6° C wolkig
Do, 26.04. 23:40 6.6° C wolkig
Do, 26.04. 23:30 6.2° C wolkig
Do, 26.04. 23:00 7.6° C wolkig
Do, 26.04. 22:30 7.0° C wolkig
Do, 26.04. 22:00 8.5° C wolkig
Do, 26.04. 21:30 10.4° C wolkig
Ortszeit Relative Feuchte Sichtweite
Do, 26.04. 20:00 45% 70 km
Do, 26.04. 14:00 44% 35 km
Do, 26.04. 8:00 70% 45 km
Do, 26.04. 2:00 88% 35 km
Mi, 25.04. 20:00 66% 30 km
Mi, 25.04. 14:00 57% 22 km
Mi, 25.04. 8:00 78% 22 km
Mi, 25.04. 2:00 98% 10 km
Ortszeit Relative Feuchte Sichtweite
Fr, 27.04. 0:30 85% 45 km
Fr, 27.04. 0:10 81% -
Fr, 27.04. 0:00 79% 50 km
Do, 26.04. 23:50 79% -
Do, 26.04. 23:40 80% -
Do, 26.04. 23:30 83% 45 km
Do, 26.04. 23:00 78% 55 km
Do, 26.04. 22:30 79% 55 km
Do, 26.04. 22:00 71% 50 km
Do, 26.04. 21:30 63% 70 km
Ortszeit Niederschlagsmenge Niederschlagsart
Do, 26.04. 20:00 0.0 l/m2 in 12 Std. -
Do, 26.04. 14:00 0.0 l/m2 in 6 Std. -
Do, 26.04. 8:00 0.1 l/m2 in 12 Std. Regen
Do, 26.04. 2:00 0.1 l/m2 in 6 Std. Regen
Mi, 25.04. 20:00 0.0 l/m2 in 12 Std. -
Mi, 25.04. 14:00 0.0 l/m2 in 6 Std. -
Mi, 25.04. 8:00 0.0 l/m2 in 12 Std. -
Mi, 25.04. 2:00 0.0 l/m2 in 6 Std. -
Ortszeit Niederschlagsmenge Niederschlagsart
Fr, 27.04. 0:30 0.0 l/m2 in 1 Std. -
Fr, 27.04. 0:10 keine Meldung -
Fr, 27.04. 0:00 0.0 l/m2 in 1 Std. -
Do, 26.04. 23:50 keine Meldung -
Do, 26.04. 23:40 keine Meldung -
Do, 26.04. 23:30 0.0 l/m2 in 1 Std. -
Do, 26.04. 23:00 0.0 l/m2 in 1 Std. -
Do, 26.04. 22:30 0.0 l/m2 in 1 Std. -
Do, 26.04. 22:00 0.0 l/m2 in 1 Std. -
Do, 26.04. 21:30 0.0 l/m2 in 1 Std. -
Ortszeit Stärke Spitze Richtung
km/h Bft. km/h Grad Sektor
Do, 26.04. 20:00 13 3 46 260° W
Do, 26.04. 14:00 24 4 46 260° W
Do, 26.04. 8:00 22 4 36 250° W
Do, 26.04. 2:00 11 2 40 200° S
Mi, 25.04. 20:00 22 4 54 270° W
Mi, 25.04. 14:00 30 5 57 260° W
Mi, 25.04. 8:00 14 3 25 260° W
Mi, 25.04. 2:00 4 1 11 220° SW
Ortszeit Stärke Spitze Richtung
km/h Bft. km/h Grad Sektor
Fr, 27.04. 0:30 4 1 7 210° SW
Fr, 27.04. 0:10 4 1 - 220° SW
Fr, 27.04. 0:00 4 1 7 140° SO
Do, 26.04. 23:50 4 1 - 140° SO
Do, 26.04. 23:40 6 1 - 150° SO
Do, 26.04. 23:30 6 1 7 140° SO
Do, 26.04. 23:00 4 1 11 250° W
Do, 26.04. 22:30 7 2 11 160° S
Do, 26.04. 22:00 4 1 7 170° S
Do, 26.04. 21:30 7 2 7 220° SW
Ortszeit Untergrenze Bedeckung Gattung
total tief tief mittel hoch
Do, 26.04. 20:00 9000 m 8/8 0/8 - - -
Do, 26.04. 14:00 1500 m 4/8 4/8 - - -
Do, 26.04. 8:00 2100 m 7/8 8/8 - - -
Do, 26.04. 2:00 1800 m 8/8 8/8 - - -
Mi, 25.04. 20:00 2400 m 7/8 7/8 - - -
Mi, 25.04. 14:00 1500 m 8/8 8/8 - - -
Mi, 25.04. 8:00 1290 m 7/8 7/8 - - -
Mi, 25.04. 2:00 9000 m 7/8 0/8 - - -
Ortszeit Bedeckungsgrad in Achtel und Wolkenuntergrenze
Fr, 27.04. 0:30 8(8700m)
Fr, 27.04. 0:10 8(8700m) 8(9000m)
Fr, 27.04. 0:00 8(8700m) 8(9000m)
Do, 26.04. 23:50 8(8700m) 8(9000m)
Do, 26.04. 23:40 8(8700m)
Do, 26.04. 23:30 8(8700m)
Do, 26.04. 23:00 8(9000m)
Do, 26.04. 22:30 8(9000m)
Do, 26.04. 22:00 8(9000m)
Do, 26.04. 21:30 2(2400m) 8(9000m) 8(10500m)
Ortszeit Luftdruck NN (hPa) Tendenz (hPa in 3 Std.)
Do, 26.04. 20:00 1019 - 0,4
Do, 26.04. 14:00 1020 - 0,4
Do, 26.04. 8:00 1019 + 1,6
Do, 26.04. 2:00 1017 + 0,9
Mi, 25.04. 20:00 1013 - 0,9
Mi, 25.04. 14:00 1014 + 0,3
Mi, 25.04. 8:00 1013 + 0,5
Mi, 25.04. 2:00 1014 - 1,0
Ortszeit Luftdruck NN (hPa) Tendenz (hPa in 3 Std.)
Fr, 27.04. 0:30 1020 - 0,3
Fr, 27.04. 0:10 1020 keine Meldung
Fr, 27.04. 0:00 1020 + 0,1
Do, 26.04. 23:50 1020 keine Meldung
Do, 26.04. 23:40 1020 keine Meldung
Do, 26.04. 23:30 1020 + 0,5
Do, 26.04. 23:00 1020 + 0,6
Do, 26.04. 22:30 1020 + 0,6
Do, 26.04. 22:00 1020 + 0,5
Do, 26.04. 21:30 1020 + 0,6
Ortszeit Schneehöhe (cm)
Do, 26.04. 20:00 0
Do, 26.04. 14:00 0
Do, 26.04. 8:00 0
Do, 26.04. 2:00 0
Mi, 25.04. 20:00 0
Mi, 25.04. 14:00 0
Mi, 25.04. 8:00 0
Mi, 25.04. 2:00 0
Ortszeit Schneehöhe (cm)
Fr, 27.04. 0:30 0
Fr, 27.04. 0:10 0
Fr, 27.04. 0:00 0
Do, 26.04. 23:50 0
Do, 26.04. 23:40 0
Do, 26.04. 23:30 0
Do, 26.04. 23:00 0
Do, 26.04. 22:30 0
Do, 26.04. 22:00 0
Do, 26.04. 21:30 0
Link zu dieser Seite / Seite empfehlen

Das Wetter in ...